Time;durP1;ratioP1;P1;durP2;ratioP2;P2;SDS_P1;SDS_P2;PMS_P1;PMS_P2;Temp;Humidity;BMP_temperature;BMP_pressure;BME280_temperature;BME280_humidity;BME280_pressure;Samples;Min_cycle;Max_cycle;Signal;HPM_P1;HPM_P2
2024/02/08 00:00:01;;;;;;;3.13;1.60;;;19.00;54.70;;;;;;5005904;28;20038;-65
2024/02/08 00:02:26;;;;;;;2.85;1.75;;;18.90;54.70;;;;;;5019000;28;20048;-66
2024/02/08 00:04:52;;;;;;;2.72;1.60;;;18.90;54.70;;;;;;5021022;28;20176;-65
2024/02/08 00:07:17;;;;;;;3.67;1.77;;;18.90;54.70;;;;;;5021692;28;20032;-66
2024/02/08 00:09:43;;;;;;;2.13;1.70;;;18.90;54.70;;;;;;5021009;28;20026;-65
2024/02/08 00:12:08;;;;;;;3.17;1.98;;;18.90;54.70;;;;;;5020088;28;20083;-63
2024/02/08 00:14:34;;;;;;;3.45;1.98;;;18.90;54.70;;;;;;5021970;28;20045;-66
2024/02/08 00:17:05;;;;;;;2.10;1.40;;;19.00;54.70;;;;;;5020449;28;20459;-64
2024/02/08 00:19:30;;;;;;;2.83;1.40;;;18.90;54.70;;;;;;5020047;28;20126;-66
2024/02/08 00:21:56;;;;;;;2.92;1.80;;;19.00;54.80;;;;;;5021772;28;20176;-66
2024/02/08 00:24:21;;;;;;;2.95;1.70;;;18.90;54.70;;;;;;5024986;28;20549;-65
2024/02/08 00:26:47;;;;;;;2.58;1.50;;;18.90;54.60;;;;;;5021945;28;20818;-64
2024/02/08 00:29:12;;;;;;;3.30;1.50;;;18.90;54.70;;;;;;5023750;28;20048;-66
2024/02/08 00:31:38;;;;;;;2.90;1.77;;;19.00;54.70;;;;;;5024331;28;20036;-65
2024/02/08 00:34:03;;;;;;;2.63;1.50;;;18.90;54.60;;;;;;5021569;28;20677;-66
2024/02/08 00:36:29;;;;;;;2.25;1.55;;;19.00;54.70;;;;;;5011973;28;20362;-64
2024/02/08 00:38:54;;;;;;;2.22;1.40;;;18.90;54.60;;;;;;5025360;28;20523;-65
2024/02/08 00:41:23;;;;;;;2.25;1.52;;;18.90;54.60;;;;;;5023446;28;20083;-66
2024/02/08 00:43:49;;;;;;;2.70;1.48;;;19.00;54.70;;;;;;5027220;28;20021;-66
2024/02/08 00:46:14;;;;;;;2.50;1.55;;;18.90;54.60;;;;;;5023225;28;20076;-66
2024/02/08 00:48:43;;;;;;;1.73;1.13;;;18.90;54.70;;;;;;5025146;28;20057;-63
2024/02/08 00:51:09;;;;;;;2.13;1.60;;;18.90;54.50;;;;;;5023160;28;20044;-65
2024/02/08 00:53:34;;;;;;;1.60;1.30;;;18.90;54.60;;;;;;5024647;28;20224;-64
2024/02/08 00:56:00;;;;;;;1.30;1.10;;;19.00;54.60;;;;;;5023248;28;20093;-65
2024/02/08 00:58:25;;;;;;;1.17;1.08;;;18.90;54.60;;;;;;5021894;28;20026;-66
2024/02/08 01:00:53;;;;;;;2.13;1.30;;;19.00;54.60;;;;;;5005269;28;20395;-67
2024/02/08 01:03:18;;;;;;;2.55;1.23;;;18.90;54.60;;;;;;5022941;28;20030;-64
2024/02/08 01:05:51;;;;;;;1.90;1.50;;;18.90;54.70;;;;;;5024854;28;20103;-66
2024/02/08 01:08:17;;;;;;;3.00;1.20;;;18.90;54.70;;;;;;5022364;28;20037;-65
2024/02/08 01:10:43;;;;;;;1.30;0.80;;;18.80;54.70;;;;;;5024176;28;20602;-66
2024/02/08 01:13:08;;;;;;;2.70;1.38;;;18.80;54.90;;;;;;5019782;28;20089;-63
2024/02/08 01:15:35;;;;;;;1.25;1.10;;;18.80;55.00;;;;;;5023185;28;20026;-63
2024/02/08 01:18:03;;;;;;;1.80;1.35;;;18.70;55.00;;;;;;5021014;28;20026;-65
2024/02/08 01:20:29;;;;;;;1.00;0.77;;;18.70;55.10;;;;;;5018085;28;20034;-66
2024/02/08 01:22:54;;;;;;;1.58;0.90;;;18.60;55.20;;;;;;5019394;28;20091;-66
2024/02/08 01:25:20;;;;;;;3.28;1.08;;;18.60;55.30;;;;;;5020315;28;20103;-64
2024/02/08 01:27:46;;;;;;;1.40;0.90;;;18.60;55.30;;;;;;5020841;28;20033;-63
2024/02/08 01:30:13;;;;;;;1.58;1.23;;;18.50;55.30;;;;;;5021860;28;20107;-64
2024/02/08 01:32:40;;;;;;;1.98;1.27;;;18.50;55.40;;;;;;5019803;28;20512;-62
2024/02/08 01:35:06;;;;;;;1.42;0.80;;;18.50;55.50;;;;;;5024159;28;20566;-65
2024/02/08 01:37:38;;;;;;;1.65;0.98;;;18.50;55.50;;;;;;5020717;28;20037;-66
2024/02/08 01:40:07;;;;;;;1.08;0.88;;;18.50;55.50;;;;;;5022502;28;20025;-64
2024/02/08 01:42:34;;;;;;;1.23;0.80;;;18.50;55.50;;;;;;5022416;28;20026;-65
2024/02/08 01:45:29;;;;;;;1.88;1.00;;;18.50;55.40;;;;;;5023396;28;20446;-64
2024/02/08 01:48:09;;;;;;;1.25;0.90;;;18.50;55.30;;;;;;5020764;28;20040;-62
2024/02/08 01:50:50;;;;;;;1.42;0.93;;;18.60;55.20;;;;;;5017985;28;20443;-63
2024/02/08 01:53:19;;;;;;;1.15;0.73;;;18.60;55.10;;;;;;5019155;28;20021;-64
2024/02/08 01:55:51;;;;;;;2.20;1.10;;;18.70;55.00;;;;;;5005497;28;20029;-66
2024/02/08 01:58:21;;;;;;;1.58;0.75;;;18.70;54.90;;;;;;5017501;28;20038;-63
2024/02/08 02:00:49;;;;;;;1.75;0.80;;;18.70;54.80;;;;;;5020932;28;20033;-65
2024/02/08 02:03:16;;;;;;;2.20;1.10;;;18.80;54.80;;;;;;5018785;28;20565;-65
2024/02/08 02:05:46;;;;;;;1.35;0.70;;;18.80;54.70;;;;;;5025092;28;20029;-66
2024/02/08 02:08:16;;;;;;;1.65;0.85;;;18.80;54.50;;;;;;5005947;28;20036;-63
2024/02/08 02:10:45;;;;;;;1.00;0.85;;;18.90;54.50;;;;;;5004008;28;20040;-65
2024/02/08 02:13:11;;;;;;;1.33;0.80;;;18.90;54.40;;;;;;5001854;28;20120;-64
2024/02/08 02:15:37;;;;;;;1.70;0.82;;;18.90;54.30;;;;;;5026997;28;20030;-64
2024/02/08 02:18:03;;;;;;;1.08;0.60;;;19.00;54.30;;;;;;5023085;28;20124;-66
2024/02/08 02:20:32;;;;;;;1.42;0.85;;;19.00;54.20;;;;;;5024889;28;20386;-65
2024/02/08 02:22:59;;;;;;;1.13;0.93;;;19.00;54.10;;;;;;5023730;28;20404;-64
2024/02/08 02:25:28;;;;;;;0.82;0.75;;;19.10;54.10;;;;;;5024497;28;20254;-65
2024/02/08 02:27:55;;;;;;;1.00;0.68;;;19.10;54.00;;;;;;5023792;28;20131;-66
2024/02/08 02:30:22;;;;;;;0.68;0.47;;;19.10;53.90;;;;;;5019920;28;20025;-63
2024/02/08 02:32:51;;;;;;;0.80;0.80;;;19.20;54.00;;;;;;5006015;28;20107;-65
2024/02/08 02:35:17;;;;;;;1.15;0.70;;;19.20;53.90;;;;;;5013784;28;20034;-65
2024/02/08 02:37:45;;;;;;;1.25;0.68;;;19.20;53.80;;;;;;5024144;28;20156;-63
2024/02/08 02:40:22;;;;;;;1.85;0.60;;;19.30;53.80;;;;;;5020388;28;20109;-65
2024/02/08 02:42:52;;;;;;;1.45;1.05;;;19.30;53.80;;;;;;5023854;28;20038;-65
2024/02/08 02:45:28;;;;;;;1.05;0.70;;;19.30;53.70;;;;;;5021242;28;20025;-67
2024/02/08 02:47:55;;;;;;;1.42;0.65;;;19.30;53.70;;;;;;5022898;28;20113;-67
2024/02/08 02:50:21;;;;;;;1.13;0.63;;;19.30;53.60;;;;;;5019756;28;20572;-63
2024/02/08 02:52:47;;;;;;;0.70;0.50;;;19.30;53.70;;;;;;5023032;28;20062;-66
2024/02/08 02:55:13;;;;;;;1.73;0.75;;;19.30;53.60;;;;;;5019593;28;20057;-67
2024/02/08 02:57:41;;;;;;;1.08;0.60;;;19.30;53.60;;;;;;5021984;28;20041;-65
2024/02/08 03:03:12;;;;;;;1.02;0.77;;;19.30;53.70;;;;;;4997285;28;20064;-66
2024/02/08 03:05:43;;;;;;;1.25;0.50;;;19.30;53.70;;;;;;5014303;28;20046;-63
2024/02/08 03:08:08;;;;;;;1.02;0.65;;;19.30;54.40;;;;;;5009043;28;20069;-66
2024/02/08 03:10:38;;;;;;;1.10;0.55;;;19.30;53.80;;;;;;5014634;28;20076;-63
2024/02/08 03:13:04;;;;;;;0.98;0.55;;;19.30;53.80;;;;;;5013984;28;20040;-66
2024/02/08 03:15:30;;;;;;;0.50;0.47;;;19.20;53.80;;;;;;5019112;28;20033;-64
2024/02/08 03:17:55;;;;;;;1.33;0.90;;;19.20;53.90;;;;;;5018869;28;20103;-66
2024/02/08 03:20:29;;;;;;;0.75;0.60;;;19.20;54.00;;;;;;5018132;28;20033;-66
2024/02/08 03:22:56;;;;;;;0.68;0.50;;;19.20;54.00;;;;;;5019084;28;20037;-65
2024/02/08 03:25:22;;;;;;;0.85;0.55;;;19.10;54.10;;;;;;5019245;28;20048;-65
2024/02/08 03:27:51;;;;;;;0.63;0.50;;;19.10;54.10;;;;;;5021477;28;20033;-65
2024/02/08 03:30:30;;;;;;;0.60;0.50;;;19.00;54.20;;;;;;5002197;28;20044;-67
2024/02/08 03:33:02;;;;;;;1.02;0.60;;;19.00;54.30;;;;;;5015919;28;20033;-64
2024/02/08 03:35:27;;;;;;;0.90;0.60;;;19.00;54.30;;;;;;5021159;28;20115;-67
2024/02/08 03:37:56;;;;;;;0.93;0.50;;;19.00;54.40;;;;;;5011277;28;20500;-66
2024/02/08 03:40:22;;;;;;;1.45;0.70;;;19.00;54.50;;;;;;5019313;28;20040;-64
2024/02/08 03:42:51;;;;;;;0.95;0.73;;;19.00;54.50;;;;;;5018269;28;20041;-65
2024/02/08 03:45:23;;;;;;;0.73;0.50;;;18.90;54.50;;;;;;5020529;28;20037;-64
2024/02/08 03:47:52;;;;;;;0.70;0.50;;;18.90;54.60;;;;;;5003054;28;20025;-64
2024/02/08 03:50:18;;;;;;;1.13;0.65;;;18.90;54.70;;;;;;5019556;28;20094;-66
2024/02/08 03:52:44;;;;;;;0.75;0.50;;;18.90;54.70;;;;;;5024102;28;20022;-65
2024/02/08 03:55:13;;;;;;;0.63;0.45;;;18.80;54.60;;;;;;5019776;28;20033;-64
2024/02/08 03:57:39;;;;;;;0.93;0.45;;;18.80;54.70;;;;;;5022282;28;20121;-66
2024/02/08 04:00:07;;;;;;;0.40;0.38;;;18.80;54.70;;;;;;5000428;28;20097;-65
2024/02/08 04:02:35;;;;;;;0.52;0.43;;;18.80;54.70;;;;;;5011712;28;20142;-65
2024/02/08 04:05:05;;;;;;;0.55;0.40;;;18.80;54.70;;;;;;5014362;28;20030;-66
2024/02/08 04:07:45;;;;;;;0.70;0.50;;;18.70;54.70;;;;;;5017063;28;20045;-61
2024/02/08 04:10:29;;;;;;;0.85;0.35;;;18.70;55.40;;;;;;5014087;28;20040;-63
2024/02/08 04:54:02;;;;;;;1.02;0.50;;;18.60;54.90;;;;;;5018619;28;20099;-63
2024/02/08 04:56:28;;;;;;;0.70;0.52;;;18.60;54.90;;;;;;5010637;28;20034;-63
2024/02/08 04:58:54;;;;;;;1.77;0.50;;;18.60;54.80;;;;;;5013554;28;20041;-63
2024/02/08 05:01:20;;;;;;;0.50;0.30;;;18.60;54.80;;;;;;5017077;28;20034;-63
2024/02/08 05:03:46;;;;;;;0.60;0.52;;;18.60;54.80;;;;;;5023669;28;20034;-65
2024/02/08 05:06:18;;;;;;;0.57;0.40;;;18.60;54.80;;;;;;5022458;28;20695;-64
2024/02/08 05:08:46;;;;;;;0.50;0.38;;;18.60;54.80;;;;;;5019089;28;20037;-66
2024/02/08 05:11:14;;;;;;;0.93;0.50;;;18.60;54.80;;;;;;4993507;28;20111;-64
2024/02/08 05:13:43;;;;;;;0.95;0.63;;;18.60;54.70;;;;;;5023436;28;20516;-64
2024/02/08 05:16:14;;;;;;;1.13;0.65;;;18.60;54.70;;;;;;5021096;28;20037;-62
2024/02/08 05:18:43;;;;;;;0.50;0.30;;;18.60;54.70;;;;;;5002699;28;20127;-62
2024/02/08 05:21:16;;;;;;;0.50;0.40;;;18.60;54.70;;;;;;5019171;28;20473;-62
2024/02/08 05:23:42;;;;;;;0.60;0.40;;;18.60;54.60;;;;;;5020654;28;20088;-62
2024/02/08 05:26:09;;;;;;;0.47;0.40;;;18.70;54.60;;;;;;4998244;28;20095;-65
2024/02/08 05:28:36;;;;;;;0.55;0.30;;;18.70;54.60;;;;;;5012570;28;20137;-65
2024/02/08 05:31:02;;;;;;;0.57;0.30;;;18.70;54.60;;;;;;5016425;28;20124;-62
2024/02/08 05:33:29;;;;;;;0.40;0.40;;;18.70;54.50;;;;;;5021625;28;20104;-62
2024/02/08 05:35:58;;;;;;;0.95;0.50;;;18.70;54.50;;;;;;5022189;28;20037;-62
2024/02/08 05:38:24;;;;;;;0.60;0.40;;;18.70;54.50;;;;;;5004372;28;20029;-65
2024/02/08 05:40:51;;;;;;;0.45;0.28;;;18.70;54.40;;;;;;5023062;28;20029;-63
2024/02/08 05:43:18;;;;;;;1.38;0.50;;;18.80;54.40;;;;;;5023957;28;20040;-65
2024/02/08 05:45:44;;;;;;;1.05;0.47;;;18.80;54.30;;;;;;5028251;28;20061;-65
2024/02/08 05:48:10;;;;;;;0.50;0.43;;;18.80;54.30;;;;;;5023312;28;20056;-65
2024/02/08 05:50:35;;;;;;;0.60;0.45;;;18.80;54.30;;;;;;5022116;28;20129;-65
2024/02/08 05:53:06;;;;;;;0.70;0.45;;;18.80;54.20;;;;;;5022871;28;20116;-65
2024/02/08 05:55:34;;;;;;;0.55;0.52;;;18.80;54.20;;;;;;5022923;28;20045;-65
2024/02/08 05:58:03;;;;;;;0.93;0.43;;;18.80;54.10;;;;;;5003032;28;20033;-65
2024/02/08 06:00:35;;;;;;;0.57;0.47;;;18.80;54.00;;;;;;5017174;28;20034;-65
2024/02/08 06:03:03;;;;;;;0.57;0.32;;;18.90;54.10;;;;;;5019147;28;20121;-65
2024/02/08 06:05:31;;;;;;;0.52;0.32;;;18.90;54.10;;;;;;5005013;28;20037;-65
2024/02/08 06:07:59;;;;;;;0.32;0.30;;;18.80;54.10;;;;;;5024804;28;20132;-66
2024/02/08 06:10:45;;;;;;;0.73;0.40;;;18.80;54.20;;;;;;5022990;28;20663;-66
2024/02/08 06:13:14;;;;;;;;;;;18.80;54.30;;;;;;5023119;28;20412;-65
2024/02/08 06:15:43;;;;;;;0.88;0.50;;;18.70;54.40;;;;;;5021233;28;20403;-65
2024/02/08 06:18:19;;;;;;;0.68;0.50;;;18.70;54.60;;;;;;5012451;28;20042;-66
2024/02/08 06:20:59;;;;;;;0.60;0.50;;;18.60;54.60;;;;;;4992408;28;20419;-66
2024/02/08 06:23:34;;;;;;;0.63;0.52;;;18.60;54.70;;;;;;5012033;28;20046;-67
2024/02/08 06:26:27;;;;;;;0.40;0.40;;;18.50;54.80;;;;;;5021039;28;20052;-65
2024/02/08 06:28:53;;;;;;;0.70;0.40;;;18.50;54.90;;;;;;5016222;28;20049;-66
2024/02/08 06:31:19;;;;;;;1.67;0.40;;;18.40;55.00;;;;;;5018515;28;20091;-67
2024/02/08 06:36:33;;;;;;;0.65;0.47;;;18.40;55.10;;;;;;5020979;28;20044;-66
2024/02/08 06:39:20;;;;;;;1.20;0.45;;;18.40;55.30;;;;;;5020715;28;20037;-68
2024/02/08 06:41:52;;;;;;;0.80;0.45;;;18.30;55.20;;;;;;5021552;28;20113;-66
2024/02/08 06:47:29;;;;;;;0.47;0.47;;;18.30;55.50;;;;;;5010503;28;20164;-68
2024/02/08 07:37:14;;;;;;;0.47;0.30;;;18.30;55.60;;;;;;5020987;28;20519;-68
2024/02/08 07:37:25;;;;;;;1.73;1.02;;;19.40;53.00;;;;;;5015990;28;20037;-67
2024/02/08 07:39:54;;;;;;;3.42;1.35;;;19.60;52.70;;;;;;5015284;28;20447;-67
2024/02/08 07:42:29;;;;;;;4.32;1.33;;;19.70;52.50;;;;;;5017370;28;20088;-65
2024/02/08 07:44:57;;;;;;;2.67;1.45;;;19.90;52.20;;;;;;5019525;28;20052;-67
2024/02/08 07:47:27;;;;;;;6.82;2.10;;;20.00;51.90;;;;;;5021400;28;20435;-67
2024/02/08 07:49:57;;;;;;;3.30;1.90;;;20.20;51.70;;;;;;5016251;28;20061;-67
2024/02/08 07:52:29;;;;;;;4.00;1.70;;;20.30;51.50;;;;;;5021801;28;20045;-67
2024/02/08 07:57:57;;;;;;;4.78;2.17;;;20.60;51.20;;;;;;5023757;28;25279;-65
2024/02/08 08:03:07;;;;;;;8.60;2.72;;;20.60;51.00;;;;;;5019641;28;20103;-65
2024/02/08 08:05:41;;;;;;;5.70;2.88;;;20.60;51.10;;;;;;5003726;28;20037;-65
2024/02/08 08:08:28;;;;;;;7.22;3.00;;;20.60;51.40;;;;;;5016210;28;20033;-65
2024/02/08 08:11:03;;;;;;;8.82;3.22;;;20.50;51.40;;;;;;5019327;28;20576;-65
2024/02/08 08:19:08;;;;;;;5.78;3.45;;;20.30;51.90;;;;;;5015101;28;20326;-64
2024/02/08 08:22:03;;;;;;;8.27;3.08;;;20.20;52.10;;;;;;5023129;28;20029;-65
2024/02/08 08:24:29;;;;;;;8.10;3.60;;;20.10;52.30;;;;;;5017189;28;20029;-65
2024/02/08 08:27:06;;;;;;;7.68;2.83;;;20.00;52.40;;;;;;5021692;28;20038;-66
2024/02/08 08:29:42;;;;;;;5.38;2.92;;;20.00;52.60;;;;;;5013540;28;20037;-66
2024/02/08 08:33:06;;;;;;;6.93;2.80;;;19.90;52.70;;;;;;5018482;28;20041;-66
2024/02/08 08:37:44;;;;;;;6.72;3.40;;;19.70;53.00;;;;;;5018341;28;20072;-65
2024/02/08 08:40:23;;;;;;;6.22;3.20;;;19.70;53.20;;;;;;5011579;28;20065;-66
2024/02/08 08:42:54;;;;;;;6.40;3.17;;;19.60;53.30;;;;;;5016143;28;20029;-65
2024/02/08 08:45:20;;;;;;;5.22;3.30;;;19.60;53.50;;;;;;5013447;28;20482;-65
2024/02/08 08:47:51;;;;;;;8.32;3.13;;;19.50;53.60;;;;;;5016381;28;20463;-65
2024/02/08 08:50:18;;;;;;;4.82;2.80;;;19.50;53.70;;;;;;5013520;28;20053;-65
2024/02/08 08:52:49;;;;;;;4.22;2.92;;;19.40;53.80;;;;;;5000387;28;20065;-65
2024/02/08 08:55:18;;;;;;;6.63;2.83;;;19.30;53.80;;;;;;5012736;28;20062;-66
2024/02/08 08:57:47;;;;;;;4.65;2.83;;;19.30;53.90;;;;;;5011886;28;20034;-65
2024/02/08 09:00:20;;;;;;;4.75;2.83;;;19.30;54.00;;;;;;5012192;28;20044;-65
2024/02/08 09:02:50;;;;;;;4.45;3.03;;;19.20;54.10;;;;;;5012346;28;20460;-65
2024/02/08 09:05:17;;;;;;;5.15;2.95;;;19.20;54.20;;;;;;5013722;28;20500;-62
2024/02/08 09:07:46;;;;;;;5.20;2.85;;;19.20;54.20;;;;;;5019972;28;20045;-65
2024/02/08 09:10:14;;;;;;;5.72;2.83;;;19.10;54.30;;;;;;5017220;28;20123;-65
2024/02/08 09:12:58;;;;;;;5.47;2.25;;;19.00;54.30;;;;;;5019747;28;20650;-65
2024/02/08 09:15:26;;;;;;;5.15;2.40;;;19.00;54.40;;;;;;5019913;28;20140;-65
2024/02/08 09:18:08;;;;;;;4.82;2.63;;;19.00;54.50;;;;;;5019064;28;20037;-66
2024/02/08 09:20:36;;;;;;;4.03;2.53;;;18.90;54.50;;;;;;5015438;28;20121;-64
2024/02/08 09:23:12;;;;;;;4.47;2.47;;;18.90;54.60;;;;;;5015024;28;20884;-65
2024/02/08 09:25:45;;;;;;;5.75;2.70;;;18.80;54.70;;;;;;5014549;28;20034;-66
2024/02/08 09:28:23;;;;;;;4.13;2.38;;;18.80;54.70;;;;;;5022140;28;21760;-65
2024/02/08 09:30:53;;;;;;;5.32;2.38;;;18.80;54.80;;;;;;5017545;28;20048;-64
2024/02/08 09:33:35;;;;;;;4.75;2.38;;;18.70;54.90;;;;;;4990285;28;20119;-64
2024/02/08 09:36:02;;;;;;;4.53;2.08;;;18.70;54.90;;;;;;5007282;28;20168;-62
2024/02/08 09:38:28;;;;;;;6.05;3.30;;;18.70;55.00;;;;;;5017183;28;20038;-65
2024/02/08 09:41:01;;;;;;;3.60;2.10;;;18.70;55.00;;;;;;5018475;28;20065;-63
2024/02/08 09:43:30;;;;;;;5.22;2.58;;;18.70;55.00;;;;;;5021901;28;20033;-65
2024/02/08 09:46:49;;;;;;;3.63;2.13;;;18.70;55.00;;;;;;5021290;28;20169;-65
2024/02/08 09:48:48;;;;;;;4.57;2.05;;;18.80;54.90;;;;;;4988595;28;20042;-64
2024/02/08 09:51:23;;;;;;;3.67;2.30;;;18.80;54.60;;;;;;5013953;28;20049;-64
2024/02/08 09:53:52;;;;;;;4.90;2.58;;;18.90;54.40;;;;;;4994397;28;20036;-64
2024/02/08 09:56:25;;;;;;;6.75;2.50;;;19.00;54.10;;;;;;5014575;28;20571;-64
2024/02/08 09:59:03;;;;;;;4.82;2.83;;;19.20;53.80;;;;;;5009610;28;20061;-66
2024/02/08 10:01:42;;;;;;;5.07;2.30;;;19.30;53.60;;;;;;5015378;28;20036;-65
2024/02/08 10:04:16;;;;;;;3.53;2.38;;;19.40;53.40;;;;;;5019385;28;20033;-65
2024/02/08 10:06:45;;;;;;;5.05;2.30;;;19.50;53.20;;;;;;5016829;28;20586;-66
2024/02/08 10:11:59;;;;;;;4.55;2.20;;;19.70;52.70;;;;;;5018962;28;20129;-65
2024/02/08 10:14:33;;;;;;;3.35;1.80;;;19.80;52.60;;;;;;5018378;28;20037;-66
2024/02/08 10:17:18;;;;;;;4.97;2.22;;;19.90;52.40;;;;;;5019886;28;20385;-65
2024/02/08 10:20:32;;;;;;;3.10;2.13;;;20.00;52.40;;;;;;5013679;28;20052;-65
2024/02/08 10:28:26;;;;;;;3.78;2.20;;;20.00;52.20;;;;;;5013783;28;20044;-65
2024/02/08 10:30:57;;;;;;;4.07;2.13;;;20.00;52.30;;;;;;5020871;28;20038;-64
2024/02/08 10:33:24;;;;;;;4.47;2.78;;;20.00;52.40;;;;;;5023490;28;20029;-65
2024/02/08 10:35:53;;;;;;;3.03;1.88;;;19.90;52.50;;;;;;5023492;28;20040;-63
2024/02/08 10:38:47;;;;;;;3.38;1.88;;;19.90;52.70;;;;;;5019928;28;20480;-62
2024/02/08 10:41:18;;;;;;;3.90;2.30;;;19.80;52.80;;;;;;5021982;28;20040;-65
2024/02/08 10:43:52;;;;;;;3.22;2.13;;;19.80;53.00;;;;;;5019641;28;20033;-64
2024/02/08 10:46:19;;;;;;;4.85;2.00;;;19.70;53.30;;;;;;5024393;28;20025;-65
2024/02/08 10:48:49;;;;;;;2.80;1.63;;;19.60;53.20;;;;;;5021874;28;20327;-64
2024/02/08 10:51:25;;;;;;;3.28;1.90;;;19.60;53.30;;;;;;5004336;28;20511;-64
2024/02/08 10:54:14;;;;;;;2.28;1.35;;;19.60;53.40;;;;;;5021665;28;20523;-66
2024/02/08 10:56:44;;;;;;;3.47;2.10;;;19.50;53.50;;;;;;4994044;28;20051;-66
2024/02/08 10:59:13;;;;;;;2.83;1.65;;;19.50;53.60;;;;;;5021099;28;20091;-65
2024/02/08 11:04:17;;;;;;;2.63;1.70;;;19.40;53.80;;;;;;5023132;28;20044;-65
2024/02/08 11:09:54;;;;;;;2.53;1.55;;;19.30;53.80;;;;;;4943446;28;20134;-65
2024/02/08 11:12:29;;;;;;;1.85;1.63;;;19.30;53.90;;;;;;5001396;28;20137;-63
2024/02/08 11:15:01;;;;;;;3.28;1.70;;;19.30;53.90;;;;;;5020444;28;20033;-66
2024/02/08 11:17:32;;;;;;;3.45;2.30;;;19.30;53.90;;;;;;5016041;28;20079;-63
2024/02/08 11:19:58;;;;;;;2.90;1.75;;;19.30;53.90;;;;;;5020052;28;20092;-65
2024/02/08 11:22:39;;;;;;;2.65;1.70;;;19.30;53.90;;;;;;4999717;28;20029;-65
2024/02/08 11:25:19;;;;;;;2.55;1.58;;;19.30;53.80;;;;;;5019690;28;20071;-64
2024/02/08 11:27:48;;;;;;;3.10;1.55;;;19.30;53.80;;;;;;5020923;28;20040;-65
2024/02/08 11:30:21;;;;;;;2.70;1.88;;;19.40;53.80;;;;;;5019649;28;20061;-65
2024/02/08 11:33:01;;;;;;;2.17;1.50;;;19.30;53.80;;;;;;5017151;28;20030;-64
2024/02/08 11:35:31;;;;;;;2.67;1.63;;;19.40;54.00;;;;;;5006898;28;20559;-65
2024/02/08 11:38:34;;;;;;;2.47;1.67;;;19.40;53.80;;;;;;5018274;28;20103;-64
2024/02/08 11:41:09;;;;;;;2.75;1.77;;;19.40;53.80;;;;;;4974148;28;20021;-64
2024/02/08 11:43:35;;;;;;;2.58;1.60;;;19.30;53.70;;;;;;5020345;28;20436;-64
2024/02/08 11:46:04;;;;;;;3.22;2.08;;;19.40;53.70;;;;;;5021521;28;20060;-63
2024/02/08 11:48:31;;;;;;;2.47;1.65;;;19.40;53.70;;;;;;5020544;28;20086;-65
2024/02/08 11:51:02;;;;;;;2.95;1.70;;;19.40;53.80;;;;;;5018323;28;20064;-65
2024/02/08 11:53:32;;;;;;;2.38;1.80;;;19.40;53.70;;;;;;5020985;28;20108;-65
2024/02/08 11:56:02;;;;;;;2.47;1.75;;;19.40;53.70;;;;;;5019420;28;20121;-65
2024/02/08 11:58:30;;;;;;;2.75;1.75;;;19.40;53.70;;;;;;5018166;28;20440;-64
2024/02/08 12:00:58;;;;;;;2.08;1.50;;;19.40;53.70;;;;;;5019649;28;20037;-64
2024/02/08 12:03:26;;;;;;;2.13;1.60;;;19.40;53.70;;;;;;5019880;28;20029;-64
2024/02/08 12:05:54;;;;;;;2.20;1.60;;;19.30;53.70;;;;;;5016934;28;20030;-65
2024/02/08 12:08:23;;;;;;;3.17;1.80;;;19.40;53.80;;;;;;5011933;28;20040;-65
2024/02/08 12:10:51;;;;;;;2.33;1.55;;;19.40;53.80;;;;;;5020176;28;20057;-65
2024/02/08 12:13:25;;;;;;;2.45;1.63;;;19.40;53.80;;;;;;5019492;28;20104;-65
2024/02/08 12:15:55;;;;;;;2.65;1.60;;;19.40;53.80;;;;;;5019526;28;20029;-65
2024/02/08 12:18:22;;;;;;;2.13;1.63;;;19.30;53.70;;;;;;4990766;28;20186;-62
2024/02/08 12:21:01;;;;;;;2.00;1.40;;;19.30;53.70;;;;;;5019033;28;20041;-65
2024/02/08 12:23:31;;;;;;;1.63;1.50;;;19.40;53.80;;;;;;5008335;28;20036;-65
2024/02/08 12:26:04;;;;;;;1.90;1.70;;;19.30;53.70;;;;;;5020302;28;20523;-64
2024/02/08 12:28:34;;;;;;;2.05;1.77;;;19.30;53.70;;;;;;5017430;28;20041;-64
2024/02/08 12:31:01;;;;;;;2.22;1.60;;;19.40;53.80;;;;;;5017118;28;20033;-64
2024/02/08 12:33:29;;;;;;;2.65;1.83;;;19.30;53.70;;;;;;5002894;28;20026;-64
2024/02/08 12:35:58;;;;;;;2.42;1.40;;;19.40;53.80;;;;;;5021470;28;20111;-63
2024/02/08 12:38:25;;;;;;;2.45;1.65;;;19.40;53.70;;;;;;5003168;28;20037;-66
2024/02/08 12:40:50;;;;;;;2.35;1.70;;;19.40;53.70;;;;;;5012087;28;20545;-64
2024/02/08 12:43:19;;;;;;;2.38;1.50;;;19.30;53.70;;;;;;5017807;28;20144;-65
2024/02/08 12:45:51;;;;;;;2.40;1.63;;;19.30;53.60;;;;;;5019598;28;20040;-64
2024/02/08 12:48:20;;;;;;;2.42;1.55;;;19.40;53.60;;;;;;5018490;28;20041;-64
2024/02/08 12:50:54;;;;;;;2.58;1.40;;;19.40;53.60;;;;;;5020455;28;20219;-65
2024/02/08 12:53:21;;;;;;;1.63;1.20;;;19.40;53.60;;;;;;5016628;28;20104;-65
2024/02/08 12:55:47;;;;;;;1.95;1.55;;;19.40;53.50;;;;;;5018731;28;20091;-65
2024/02/08 12:58:16;;;;;;;2.20;1.50;;;19.40;53.60;;;;;;5018530;28;20108;-65
2024/02/08 13:00:45;;;;;;;2.33;1.60;;;19.40;53.60;;;;;;5018352;28;20160;-65
2024/02/08 13:03:11;;;;;;;2.45;1.38;;;19.40;53.60;;;;;;4998038;28;20044;-65
2024/02/08 13:05:37;;;;;;;2.13;1.30;;;19.40;53.50;;;;;;5020886;28;20022;-65
2024/02/08 13:08:03;;;;;;;2.55;1.60;;;19.40;53.50;;;;;;5017907;28;20033;-64
2024/02/08 13:10:31;;;;;;;2.15;1.30;;;19.40;53.50;;;;;;5017522;28;20026;-65
2024/02/08 13:13:01;;;;;;;2.20;1.55;;;19.40;53.50;;;;;;5016367;28;20448;-65
2024/02/08 13:15:33;;;;;;;2.65;1.65;;;19.40;53.60;;;;;;5018742;28;20072;-65
2024/02/08 13:18:00;;;;;;;2.05;1.42;;;19.40;53.50;;;;;;5018183;28;20030;-64
2024/02/08 13:20:26;;;;;;;2.22;1.55;;;19.40;53.60;;;;;;5017382;28;20052;-65
2024/02/08 13:22:52;;;;;;;2.20;1.50;;;19.40;53.60;;;;;;5018853;28;20036;-63
2024/02/08 13:25:18;;;;;;;2.10;1.45;;;19.40;53.60;;;;;;5019245;28;20547;-66
2024/02/08 13:27:44;;;;;;;2.50;1.50;;;19.40;53.60;;;;;;5018585;28;20095;-65
2024/02/08 13:30:16;;;;;;;2.67;1.25;;;19.40;53.60;;;;;;5017237;28;20041;-64
2024/02/08 13:32:51;;;;;;;2.00;1.55;;;19.40;53.50;;;;;;5019071;28;20083;-64
2024/02/08 13:35:20;;;;;;;2.70;2.15;;;19.40;53.50;;;;;;5018747;28;20090;-65
2024/02/08 13:37:50;;;;;;;1.63;1.48;;;19.40;53.60;;;;;;5011378;28;20033;-63
2024/02/08 13:40:18;;;;;;;1.58;1.45;;;19.40;53.50;;;;;;5012206;28;20025;-64
2024/02/08 13:42:47;;;;;;;1.60;1.45;;;19.40;53.50;;;;;;5018606;28;20037;-65
2024/02/08 13:45:14;;;;;;;1.58;1.48;;;19.40;53.50;;;;;;5019284;28;20611;-65
2024/02/08 13:47:41;;;;;;;3.03;1.60;;;19.40;53.50;;;;;;5018119;28;20163;-65
2024/02/08 13:50:10;;;;;;;1.85;1.60;;;19.40;53.50;;;;;;5017519;28;20041;-61
2024/02/08 13:52:37;;;;;;;1.52;1.38;;;19.40;53.60;;;;;;5019906;28;20030;-65
2024/02/08 13:55:07;;;;;;;1.70;1.30;;;19.40;53.60;;;;;;5023145;28;20129;-65
2024/02/08 13:57:38;;;;;;;2.13;1.35;;;19.40;53.60;;;;;;5024327;28;20092;-65
2024/02/08 14:00:08;;;;;;;1.83;1.35;;;19.40;53.60;;;;;;5020341;28;20034;-65
2024/02/08 14:02:36;;;;;;;2.30;1.58;;;19.40;53.60;;;;;;5009570;28;20030;-65
2024/02/08 14:05:16;;;;;;;1.80;1.70;;;19.30;53.60;;;;;;5018990;28;20064;-65
2024/02/08 14:07:43;;;;;;;1.90;1.35;;;19.40;53.70;;;;;;5021303;28;20021;-64
2024/02/08 14:10:12;;;;;;;1.95;1.52;;;19.30;53.60;;;;;;5021318;28;20026;-65
2024/02/08 14:12:45;;;;;;;1.92;1.58;;;19.30;53.60;;;;;;5002898;28;20025;-64
2024/02/08 14:15:12;;;;;;;2.42;1.55;;;19.30;53.70;;;;;;5020866;28;20052;-64
2024/02/08 14:17:41;;;;;;;1.63;1.17;;;19.30;53.70;;;;;;5021729;28;20030;-65
2024/02/08 14:22:59;;;;;;;1.27;1.15;;;19.30;53.60;;;;;;5007797;28;20092;-65
2024/02/08 14:25:37;;;;;;;2.03;1.63;;;19.30;53.70;;;;;;5021871;28;20048;-64
2024/02/08 14:28:09;;;;;;;1.90;1.38;;;19.30;53.70;;;;;;5020407;28;20037;-65
2024/02/08 14:30:35;;;;;;;1.85;1.60;;;19.30;53.80;;;;;;5001074;28;20144;-65
2024/02/08 14:33:02;;;;;;;1.58;1.27;;;19.30;53.60;;;;;;5023284;28;20049;-65
2024/02/08 14:35:31;;;;;;;1.60;1.48;;;19.30;53.70;;;;;;5022978;28;20026;-64
2024/02/08 14:37:58;;;;;;;2.00;1.58;;;19.30;53.80;;;;;;5024487;28;20117;-65
2024/02/08 14:40:26;;;;;;;2.33;1.35;;;19.30;53.80;;;;;;5021886;28;20532;-65
2024/02/08 14:42:51;;;;;;;2.13;1.20;;;19.20;53.80;;;;;;5025576;28;20025;-65
2024/02/08 14:45:19;;;;;;;1.70;1.30;;;19.20;53.80;;;;;;5022153;28;20041;-64
2024/02/08 14:47:50;;;;;;;2.00;1.50;;;19.20;54.00;;;;;;5024304;28;20037;-65
2024/02/08 14:53:00;;;;;;;2.13;1.42;;;19.10;54.70;;;;;;5011071;28;20408;-65
2024/02/08 14:55:29;;;;;;;1.52;1.30;;;19.10;54.20;;;;;;5005208;28;20053;-64
2024/02/08 14:57:58;;;;;;;1.55;1.35;;;19.00;54.20;;;;;;5023687;28;20060;-65
2024/02/08 15:03:07;;;;;;;1.63;1.35;;;19.00;54.30;;;;;;5023820;28;20037;-64
2024/02/08 15:05:59;;;;;;;2.17;1.50;;;18.90;54.50;;;;;;5019452;28;20026;-65
2024/02/08 15:11:03;;;;;;;1.38;1.10;;;18.90;54.50;;;;;;5018215;28;20045;-64
2024/02/08 15:16:30;;;;;;;1.42;1.00;;;18.90;54.60;;;;;;5009399;28;20034;-64
2024/02/08 15:18:56;;;;;;;1.23;1.13;;;18.80;54.70;;;;;;5022326;28;20397;-63